Terminal Aerodrome Forecast
Issued by NWS

Home | Current Version | Previous Version | Text Only | Print | Product List | Glossary On
Versions: 1 2 3 4 5 6 7 8 9 10 11 12 13 14 15 16
752
FTUS41 KBTV 271735
TAFMPV
TAF
KMPV 271735Z 2718/2818 21008KT P6SM VCSH OVC035
      TEMPO 2718/2721 4SM -SHRA BKN025
     FM272100 25007KT P6SM VCSH BKN060
     FM280300 00000KT P6SM BKN070
     FM280600 00000KT P6SM OVC025
     FM280900 00000KT P6SM OVC003
     FM281500 34006KT P6SM BKN040=

USA.gov is the U.S. government's official web portal to all federal, state and local government web resources and services.